sensor_id;sensor_type;location;lat;lon;timestamp;temperature;humidity
75786;DHT22;64402;44.708;37.644;2023-02-15T00:01:55;3.02;87.57
75786;DHT22;64402;44.708;37.644;2023-02-15T00:04:23;3.05;87.81
75786;DHT22;64402;44.708;37.644;2023-02-15T00:06:50;3.09;87.28
75786;DHT22;64402;44.708;37.644;2023-02-15T00:09:16;3.12;87.40
75786;DHT22;64402;44.708;37.644;2023-02-15T00:11:43;3.16;88.25
75786;DHT22;64402;44.708;37.644;2023-02-15T00:14:20;3.17;87.99
75786;DHT22;64402;44.708;37.644;2023-02-15T00:16:48;3.15;86.60
75786;DHT22;64402;44.708;37.644;2023-02-15T00:19:17;3.21;88.31
75786;DHT22;64402;44.708;37.644;2023-02-15T00:21:43;3.29;88.48
75786;DHT22;64402;44.708;37.644;2023-02-15T00:24:12;3.35;87.86
75786;DHT22;64402;44.708;37.644;2023-02-15T00:26:42;3.34;86.90
75786;DHT22;64402;44.708;37.644;2023-02-15T00:29:18;3.20;85.23
75786;DHT22;64402;44.708;37.644;2023-02-15T00:31:45;3.03;86.25
75786;DHT22;64402;44.708;37.644;2023-02-15T00:34:17;2.88;86.98
75786;DHT22;64402;44.708;37.644;2023-02-15T00:36:44;2.90;87.91
75786;DHT22;64402;44.708;37.644;2023-02-15T00:39:11;2.93;88.20
75786;DHT22;64402;44.708;37.644;2023-02-15T00:41:38;3.09;89.53
75786;DHT22;64402;44.708;37.644;2023-02-15T00:44:05;3.23;88.02
75786;DHT22;64402;44.708;37.644;2023-02-15T00:46:32;3.30;86.70
75786;DHT22;64402;44.708;37.644;2023-02-15T00:48:58;3.42;86.93
75786;DHT22;64402;44.708;37.644;2023-02-15T00:51:25;3.49;86.75
75786;DHT22;64402;44.708;37.644;2023-02-15T00:53:55;3.58;86.87
75786;DHT22;64402;44.708;37.644;2023-02-15T00:56:21;3.57;85.97
75786;DHT22;64402;44.708;37.644;2023-02-15T00:58:47;3.50;85.75
75786;DHT22;64402;44.708;37.644;2023-02-15T01:01:16;3.42;85.77
75786;DHT22;64402;44.708;37.644;2023-02-15T01:03:46;3.25;85.61
75786;DHT22;64402;44.708;37.644;2023-02-15T01:06:16;3.16;86.17
75786;DHT22;64402;44.708;37.644;2023-02-15T01:08:44;3.14;86.58
75786;DHT22;64402;44.708;37.644;2023-02-15T01:11:17;3.18;86.50
75786;DHT22;64402;44.708;37.644;2023-02-15T01:13:54;3.25;87.35
75786;DHT22;64402;44.708;37.644;2023-02-15T01:16:22;3.26;86.45
75786;DHT22;64402;44.708;37.644;2023-02-15T01:18:48;3.27;86.12
75786;DHT22;64402;44.708;37.644;2023-02-15T01:21:19;3.25;86.31
75786;DHT22;64402;44.708;37.644;2023-02-15T01:23:46;3.27;86.10
75786;DHT22;64402;44.708;37.644;2023-02-15T01:26:13;3.29;86.69
75786;DHT22;64402;44.708;37.644;2023-02-15T01:28:39;3.31;86.09
75786;DHT22;64402;44.708;37.644;2023-02-15T01:31:18;3.25;85.61
75786;DHT22;64402;44.708;37.644;2023-02-15T01:33:44;3.20;86.12
75786;DHT22;64402;44.708;37.644;2023-02-15T01:36:11;3.14;86.37
75786;DHT22;64402;44.708;37.644;2023-02-15T01:38:37;3.10;86.43
75786;DHT22;64402;44.708;37.644;2023-02-15T01:41:03;3.04;86.84
75786;DHT22;64402;44.708;37.644;2023-02-15T01:43:54;3.04;87.32
75786;DHT22;64402;44.708;37.644;2023-02-15T01:46:49;3.02;87.20
75786;DHT22;64402;44.708;37.644;2023-02-15T01:49:19;3.06;86.70
75786;DHT22;64402;44.708;37.644;2023-02-15T01:51:48;3.08;87.34
75786;DHT22;64402;44.708;37.644;2023-02-15T01:54:23;3.08;86.28
75786;DHT22;64402;44.708;37.644;2023-02-15T01:56:50;3.06;86.59
75786;DHT22;64402;44.708;37.644;2023-02-15T01:59:21;3.06;86.70
75786;DHT22;64402;44.708;37.644;2023-02-15T02:01:54;3.10;86.70
75786;DHT22;64402;44.708;37.644;2023-02-15T02:04:31;3.11;86.79
75786;DHT22;64402;44.708;37.644;2023-02-15T02:07:00;3.03;86.32
75786;DHT22;64402;44.708;37.644;2023-02-15T02:09:26;2.97;86.77
75786;DHT22;64402;44.708;37.644;2023-02-15T02:11:53;2.90;86.80
75786;DHT22;64402;44.708;37.644;2023-02-15T02:14:20;2.91;86.74
75786;DHT22;64402;44.708;37.644;2023-02-15T02:17:16;2.91;87.05
75786;DHT22;64402;44.708;37.644;2023-02-15T02:19:56;2.90;87.37
75786;DHT22;64402;44.708;37.644;2023-02-15T02:22:42;2.93;87.57
75786;DHT22;64402;44.708;37.644;2023-02-15T02:28:40;2.99;86.78
75786;DHT22;64402;44.708;37.644;2023-02-15T02:36:48;3.05;87.33
75786;DHT22;64402;44.708;37.644;2023-02-15T02:45:35;3.11;86.92
75786;DHT22;64402;44.708;37.644;2023-02-15T02:47:50;3.11;86.21
75786;DHT22;64402;44.708;37.644;2023-02-15T02:50:23;3.03;85.67
75786;DHT22;64402;44.708;37.644;2023-02-15T02:52:53;3.04;86.69
75786;DHT22;64402;44.708;37.644;2023-02-15T02:55:27;3.06;86.88
75786;DHT22;64402;44.708;37.644;2023-02-15T02:58:24;3.10;86.34
75786;DHT22;64402;44.708;37.644;2023-02-15T03:01:03;3.14;86.54
75786;DHT22;64402;44.708;37.644;2023-02-15T03:03:39;3.16;86.52
75786;DHT22;64402;44.708;37.644;2023-02-15T03:06:24;3.17;86.66
75786;DHT22;64402;44.708;37.644;2023-02-15T03:09:08;3.18;86.67
75786;DHT22;64402;44.708;37.644;2023-02-15T03:11:42;3.21;86.14
75786;DHT22;64402;44.708;37.644;2023-02-15T03:14:10;3.20;86.22
75786;DHT22;64402;44.708;37.644;2023-02-15T03:16:40;3.18;85.96
75786;DHT22;64402;44.708;37.644;2023-02-15T03:19:17;3.21;86.02
75786;DHT22;64402;44.708;37.644;2023-02-15T03:21:48;3.26;86.12
75786;DHT22;64402;44.708;37.644;2023-02-15T03:24:41;3.21;85.58
75786;DHT22;64402;44.708;37.644;2023-02-15T03:27:14;3.20;85.65
75786;DHT22;64402;44.708;37.644;2023-02-15T03:29:49;3.24;86.69
75786;DHT22;64402;44.708;37.644;2023-02-15T03:32:18;3.17;85.90
75786;DHT22;64402;44.708;37.644;2023-02-15T03:34:45;3.15;86.55
75786;DHT22;64402;44.708;37.644;2023-02-15T03:37:28;3.16;87.12
75786;DHT22;64402;44.708;37.644;2023-02-15T03:40:00;3.15;86.75
75786;DHT22;64402;44.708;37.644;2023-02-15T03:43:01;3.14;86.04
75786;DHT22;64402;44.708;37.644;2023-02-15T03:45:32;3.14;86.53
75786;DHT22;64402;44.708;37.644;2023-02-15T03:48:00;3.16;85.96
75786;DHT22;64402;44.708;37.644;2023-02-15T03:50:30;3.19;85.82
75786;DHT22;64402;44.708;37.644;2023-02-15T03:53:18;3.18;85.42
75786;DHT22;64402;44.708;37.644;2023-02-15T03:55:48;3.13;85.36
75786;DHT22;64402;44.708;37.644;2023-02-15T03:58:14;3.14;86.20
75786;DHT22;64402;44.708;37.644;2023-02-15T04:01:03;3.16;85.87
75786;DHT22;64402;44.708;37.644;2023-02-15T04:03:59;3.20;86.25
75786;DHT22;64402;44.708;37.644;2023-02-15T04:06:26;3.23;86.48
75786;DHT22;64402;44.708;37.644;2023-02-15T04:08:53;3.17;85.93
75786;DHT22;64402;44.708;37.644;2023-02-15T04:11:38;3.11;85.95
75786;DHT22;64402;44.708;37.644;2023-02-15T04:14:04;3.14;86.83
75786;DHT22;64402;44.708;37.644;2023-02-15T04:16:50;3.18;87.65
75786;DHT22;64402;44.708;37.644;2023-02-15T04:19:16;3.21;86.77
75786;DHT22;64402;44.708;37.644;2023-02-15T04:22:02;3.21;86.38
75786;DHT22;64402;44.708;37.644;2023-02-15T04:24:46;3.18;85.55
75786;DHT22;64402;44.708;37.644;2023-02-15T04:27:31;3.19;86.38
75786;DHT22;64402;44.708;37.644;2023-02-15T04:29:57;3.10;85.51
75786;DHT22;64402;44.708;37.644;2023-02-15T04:32:24;3.05;85.80
75786;DHT22;64402;44.708;37.644;2023-02-15T04:34:50;3.00;86.06
75786;DHT22;64402;44.708;37.644;2023-02-15T04:37:16;2.95;85.18
75786;DHT22;64402;44.708;37.644;2023-02-15T04:39:42;2.90;85.42
75786;DHT22;64402;44.708;37.644;2023-02-15T04:42:09;2.90;85.96
75786;DHT22;64402;44.708;37.644;2023-02-15T04:44:35;2.86;85.96
75786;DHT22;64402;44.708;37.644;2023-02-15T04:47:04;2.84;85.97
75786;DHT22;64402;44.708;37.644;2023-02-15T04:49:30;2.89;87.10
75786;DHT22;64402;44.708;37.644;2023-02-15T04:51:56;2.94;86.45
75786;DHT22;64402;44.708;37.644;2023-02-15T04:54:23;2.90;85.90
75786;DHT22;64402;44.708;37.644;2023-02-15T04:56:49;2.96;85.86
75786;DHT22;64402;44.708;37.644;2023-02-15T04:59:15;3.03;86.46
75786;DHT22;64402;44.708;37.644;2023-02-15T05:01:42;3.09;86.40
75786;DHT22;64402;44.708;37.644;2023-02-15T05:04:08;3.13;86.16
75786;DHT22;64402;44.708;37.644;2023-02-15T05:06:35;3.13;85.32
75786;DHT22;64402;44.708;37.644;2023-02-15T05:09:01;3.09;84.47
75786;DHT22;64402;44.708;37.644;2023-02-15T05:11:30;3.00;85.31
75786;DHT22;64402;44.708;37.644;2023-02-15T05:13:57;3.01;84.66
75786;DHT22;64402;44.708;37.644;2023-02-15T05:16:23;2.97;85.32
75786;DHT22;64402;44.708;37.644;2023-02-15T05:18:51;2.90;85.14
75786;DHT22;64402;44.708;37.644;2023-02-15T05:21:17;2.88;85.34
75786;DHT22;64402;44.708;37.644;2023-02-15T05:23:43;2.87;85.14
75786;DHT22;64402;44.708;37.644;2023-02-15T05:26:17;2.86;84.89
75786;DHT22;64402;44.708;37.644;2023-02-15T05:29:03;2.82;86.45
75786;DHT22;64402;44.708;37.644;2023-02-15T05:31:31;2.87;86.83
75786;DHT22;64402;44.708;37.644;2023-02-15T05:33:57;2.93;86.47
75786;DHT22;64402;44.708;37.644;2023-02-15T05:36:24;2.99;85.94
75786;DHT22;64402;44.708;37.644;2023-02-15T05:38:50;3.04;86.46
75786;DHT22;64402;44.708;37.644;2023-02-15T05:41:16;3.06;85.23
75786;DHT22;64402;44.708;37.644;2023-02-15T05:43:45;3.10;85.44
75786;DHT22;64402;44.708;37.644;2023-02-15T05:46:12;3.10;85.09
75786;DHT22;64402;44.708;37.644;2023-02-15T05:48:38;3.06;84.60
75786;DHT22;64402;44.708;37.644;2023-02-15T05:51:06;3.05;85.24
75786;DHT22;64402;44.708;37.644;2023-02-15T05:53:34;3.09;85.64
75786;DHT22;64402;44.708;37.644;2023-02-15T05:56:02;3.16;85.50
75786;DHT22;64402;44.708;37.644;2023-02-15T05:58:32;3.19;84.91
75786;DHT22;64402;44.708;37.644;2023-02-15T06:00:58;3.19;85.15
75786;DHT22;64402;44.708;37.644;2023-02-15T06:03:25;3.20;84.93
75786;DHT22;64402;44.708;37.644;2023-02-15T06:05:54;3.20;84.89
75786;DHT22;64402;44.708;37.644;2023-02-15T06:08:20;3.25;85.42
75786;DHT22;64402;44.708;37.644;2023-02-15T06:10:46;3.30;84.85
75786;DHT22;64402;44.708;37.644;2023-02-15T06:13:13;3.25;84.50
75786;DHT22;64402;44.708;37.644;2023-02-15T06:15:39;3.30;85.03
75786;DHT22;64402;44.708;37.644;2023-02-15T06:18:08;3.25;85.02
75786;DHT22;64402;44.708;37.644;2023-02-15T06:20:34;3.26;84.52
75786;DHT22;64402;44.708;37.644;2023-02-15T06:23:01;3.19;84.68
75786;DHT22;64402;44.708;37.644;2023-02-15T06:25:27;3.23;85.32
75786;DHT22;64402;44.708;37.644;2023-02-15T06:27:56;3.21;84.37
75786;DHT22;64402;44.708;37.644;2023-02-15T06:30:26;3.21;85.05
75786;DHT22;64402;44.708;37.644;2023-02-15T06:32:55;3.17;85.14
75786;DHT22;64402;44.708;37.644;2023-02-15T06:35:21;3.16;85.57
75786;DHT22;64402;44.708;37.644;2023-02-15T06:37:48;3.17;85.80
75786;DHT22;64402;44.708;37.644;2023-02-15T06:40:15;3.19;85.44
75786;DHT22;64402;44.708;37.644;2023-02-15T06:42:42;3.18;84.26
75786;DHT22;64402;44.708;37.644;2023-02-15T06:45:09;3.23;83.71
75786;DHT22;64402;44.708;37.644;2023-02-15T06:47:35;3.30;83.50
75786;DHT22;64402;44.708;37.644;2023-02-15T06:50:03;3.35;83.39
75786;DHT22;64402;44.708;37.644;2023-02-15T06:52:30;3.56;83.24
75786;DHT22;64402;44.708;37.644;2023-02-15T06:54:56;3.69;82.69
75786;DHT22;64402;44.708;37.644;2023-02-15T06:57:22;3.78;83.25
75786;DHT22;64402;44.708;37.644;2023-02-15T06:59:48;3.80;82.16
75786;DHT22;64402;44.708;37.644;2023-02-15T07:02:15;3.74;81.00
75786;DHT22;64402;44.708;37.644;2023-02-15T07:04:41;3.71;82.01
75786;DHT22;64402;44.708;37.644;2023-02-15T07:07:09;3.72;82.16
75786;DHT22;64402;44.708;37.644;2023-02-15T07:09:36;3.78;81.81
75786;DHT22;64402;44.708;37.644;2023-02-15T07:12:02;3.78;81.33
75786;DHT22;64402;44.708;37.644;2023-02-15T07:14:47;3.86;82.18
75786;DHT22;64402;44.708;37.644;2023-02-15T07:17:13;3.92;80.81
75786;DHT22;64402;44.708;37.644;2023-02-15T07:19:39;3.92;80.49
75786;DHT22;64402;44.708;37.644;2023-02-15T07:22:06;3.93;80.72
75786;DHT22;64402;44.708;37.644;2023-02-15T07:24:32;4.05;80.28
75786;DHT22;64402;44.708;37.644;2023-02-15T07:26:59;4.27;79.69
75786;DHT22;64402;44.708;37.644;2023-02-15T07:29:25;4.52;78.49
75786;DHT22;64402;44.708;37.644;2023-02-15T07:31:51;4.78;78.72
75786;DHT22;64402;44.708;37.644;2023-02-15T07:34:18;4.87;77.59
75786;DHT22;64402;44.708;37.644;2023-02-15T07:36:44;4.91;76.95
75786;DHT22;64402;44.708;37.644;2023-02-15T07:39:11;4.83;76.16
75786;DHT22;64402;44.708;37.644;2023-02-15T07:41:37;4.86;76.64
75786;DHT22;64402;44.708;37.644;2023-02-15T07:44:04;4.80;76.99
75786;DHT22;64402;44.708;37.644;2023-02-15T07:46:30;4.66;77.69
75786;DHT22;64402;44.708;37.644;2023-02-15T07:48:57;4.51;77.54
75786;DHT22;64402;44.708;37.644;2023-02-15T07:51:23;4.48;78.83
75786;DHT22;64402;44.708;37.644;2023-02-15T07:53:49;4.47;77.23
75786;DHT22;64402;44.708;37.644;2023-02-15T07:56:17;4.48;78.15
75786;DHT22;64402;44.708;37.644;2023-02-15T07:58:43;4.52;78.19
75786;DHT22;64402;44.708;37.644;2023-02-15T08:01:25;4.68;76.98
75786;DHT22;64402;44.708;37.644;2023-02-15T08:03:53;4.81;76.14
75786;DHT22;64402;44.708;37.644;2023-02-15T08:06:21;4.81;76.34
75786;DHT22;64402;44.708;37.644;2023-02-15T08:08:48;4.93;75.95
75786;DHT22;64402;44.708;37.644;2023-02-15T08:11:21;5.21;75.34
75786;DHT22;64402;44.708;37.644;2023-02-15T08:14:10;5.51;75.08
75786;DHT22;64402;44.708;37.644;2023-02-15T08:16:48;5.62;73.35
75786;DHT22;64402;44.708;37.644;2023-02-15T08:19:21;5.74;73.77
75786;DHT22;64402;44.708;37.644;2023-02-15T08:21:50;5.87;72.05
75786;DHT22;64402;44.708;37.644;2023-02-15T08:24:19;6.19;73.43
75786;DHT22;64402;44.708;37.644;2023-02-15T08:26:46;6.68;72.22
75786;DHT22;64402;44.708;37.644;2023-02-15T08:29:15;7.13;68.04
75786;DHT22;64402;44.708;37.644;2023-02-15T08:31:41;7.63;67.81
75786;DHT22;64402;44.708;37.644;2023-02-15T08:34:09;7.94;66.59
75786;DHT22;64402;44.708;37.644;2023-02-15T08:36:37;7.90;64.84
75786;DHT22;64402;44.708;37.644;2023-02-15T08:39:05;7.41;64.29
75786;DHT22;64402;44.708;37.644;2023-02-15T08:41:34;6.87;66.30
75786;DHT22;64402;44.708;37.644;2023-02-15T08:44:04;6.82;67.12
75786;DHT22;64402;44.708;37.644;2023-02-15T08:46:34;7.31;62.86
75786;DHT22;64402;44.708;37.644;2023-02-15T08:49:01;7.98;62.70
75786;DHT22;64402;44.708;37.644;2023-02-15T08:51:30;9.08;59.91
75786;DHT22;64402;44.708;37.644;2023-02-15T08:53:59;10.28;56.79
75786;DHT22;64402;44.708;37.644;2023-02-15T08:56:28;10.52;52.80
75786;DHT22;64402;44.708;37.644;2023-02-15T08:58:54;10.00;56.77
75786;DHT22;64402;44.708;37.644;2023-02-15T09:01:29;9.84;54.99
75786;DHT22;64402;44.708;37.644;2023-02-15T09:03:58;9.69;56.41
75786;DHT22;64402;44.708;37.644;2023-02-15T09:06:25;9.05;58.48
75786;DHT22;64402;44.708;37.644;2023-02-15T09:08:52;8.48;58.90
75786;DHT22;64402;44.708;37.644;2023-02-15T09:11:24;8.63;59.56
75786;DHT22;64402;44.708;37.644;2023-02-15T09:13:56;8.73;56.88
75786;DHT22;64402;44.708;37.644;2023-02-15T09:16:25;8.65;56.71
75786;DHT22;64402;44.708;37.644;2023-02-15T09:18:53;8.68;57.45
75786;DHT22;64402;44.708;37.644;2023-02-15T09:21:21;8.93;56.73
75786;DHT22;64402;44.708;37.644;2023-02-15T09:23:50;9.36;56.84
75786;DHT22;64402;44.708;37.644;2023-02-15T09:26:20;9.31;54.84
75786;DHT22;64402;44.708;37.644;2023-02-15T09:28:47;8.93;55.97
75786;DHT22;64402;44.708;37.644;2023-02-15T09:31:19;8.66;56.98
75786;DHT22;64402;44.708;37.644;2023-02-15T09:33:47;8.43;56.74
75786;DHT22;64402;44.708;37.644;2023-02-15T09:36:28;8.22;56.84
75786;DHT22;64402;44.708;37.644;2023-02-15T09:39:00;8.20;56.48
75786;DHT22;64402;44.708;37.644;2023-02-15T09:44:18;8.76;56.08
75786;DHT22;64402;44.708;37.644;2023-02-15T09:47:17;9.00;55.68
75786;DHT22;64402;44.708;37.644;2023-02-15T10:13:16;12.31;43.26
75786;DHT22;64402;44.708;37.644;2023-02-15T10:18:37;12.35;43.70
75786;DHT22;64402;44.708;37.644;2023-02-15T10:26:42;14.15;41.53
75786;DHT22;64402;44.708;37.644;2023-02-15T10:31:50;14.78;37.84
75786;DHT22;64402;44.708;37.644;2023-02-15T10:34:39;15.89;33.99
75786;DHT22;64402;44.708;37.644;2023-02-15T10:40:20;16.29;31.96
75786;DHT22;64402;44.708;37.644;2023-02-15T10:46:20;16.49;32.47
75786;DHT22;64402;44.708;37.644;2023-02-15T10:54:16;17.03;32.32
75786;DHT22;64402;44.708;37.644;2023-02-15T11:12:45;13.46;38.75
75786;DHT22;64402;44.708;37.644;2023-02-15T11:15:41;12.55;41.98
75786;DHT22;64402;44.708;37.644;2023-02-15T11:18:25;12.59;42.68
75786;DHT22;64402;44.708;37.644;2023-02-15T11:23:35;11.40;43.58
75786;DHT22;64402;44.708;37.644;2023-02-15T11:26:04;10.65;46.35
75786;DHT22;64402;44.708;37.644;2023-02-15T11:28:45;10.13;48.11
75786;DHT22;64402;44.708;37.644;2023-02-15T11:31:20;9.42;49.85
75786;DHT22;64402;44.708;37.644;2023-02-15T11:33:55;9.25;50.28
75786;DHT22;64402;44.708;37.644;2023-02-15T11:36:26;9.16;50.53
75786;DHT22;64402;44.708;37.644;2023-02-15T11:39:02;9.49;50.95
75786;DHT22;64402;44.708;37.644;2023-02-15T11:41:36;8.93;49.44
75786;DHT22;64402;44.708;37.644;2023-02-15T11:47:02;7.91;53.02
75786;DHT22;64402;44.708;37.644;2023-02-15T11:51:56;7.89;55.11
75786;DHT22;64402;44.708;37.644;2023-02-15T11:54:34;8.09;54.75
75786;DHT22;64402;44.708;37.644;2023-02-15T11:57:23;8.24;53.90
75786;DHT22;64402;44.708;37.644;2023-02-15T12:00:00;8.19;54.55
75786;DHT22;64402;44.708;37.644;2023-02-15T12:02:31;8.41;53.69
75786;DHT22;64402;44.708;37.644;2023-02-15T12:05:03;8.46;55.65
75786;DHT22;64402;44.708;37.644;2023-02-15T12:07:37;8.00;55.37
75786;DHT22;64402;44.708;37.644;2023-02-15T12:10:26;7.77;55.32
75786;DHT22;64402;44.708;37.644;2023-02-15T12:13:15;7.43;56.36
75786;DHT22;64402;44.708;37.644;2023-02-15T12:15:47;7.13;56.59
75786;DHT22;64402;44.708;37.644;2023-02-15T12:18:38;7.10;57.51
75786;DHT22;64402;44.708;37.644;2023-02-15T12:21:32;6.89;58.29
75786;DHT22;64402;44.708;37.644;2023-02-15T12:24:09;6.71;58.44
75786;DHT22;64402;44.708;37.644;2023-02-15T12:26:41;6.75;59.67
75786;DHT22;64402;44.708;37.644;2023-02-15T12:29:15;6.70;58.96
75786;DHT22;64402;44.708;37.644;2023-02-15T12:31:46;6.66;59.25
75786;DHT22;64402;44.708;37.644;2023-02-15T12:34:30;6.55;59.74
75786;DHT22;64402;44.708;37.644;2023-02-15T12:37:00;6.73;60.67
75786;DHT22;64402;44.708;37.644;2023-02-15T12:39:30;6.58;59.32
75786;DHT22;64402;44.708;37.644;2023-02-15T12:42:23;6.41;61.08
75786;DHT22;64402;44.708;37.644;2023-02-15T12:50:41;6.43;62.47
75786;DHT22;64402;44.708;37.644;2023-02-15T12:53:20;6.38;62.53
75786;DHT22;64402;44.708;37.644;2023-02-15T12:55:53;6.31;61.08
75786;DHT22;64402;44.708;37.644;2023-02-15T12:58:22;6.02;62.30
75786;DHT22;64402;44.708;37.644;2023-02-15T13:01:18;5.98;63.72
75786;DHT22;64402;44.708;37.644;2023-02-15T13:03:54;6.00;63.64
75786;DHT22;64402;44.708;37.644;2023-02-15T13:06:21;5.91;63.69
75786;DHT22;64402;44.708;37.644;2023-02-15T13:08:50;5.82;63.53
75786;DHT22;64402;44.708;37.644;2023-02-15T13:11:29;5.78;63.71
75786;DHT22;64402;44.708;37.644;2023-02-15T13:14:16;5.95;64.56
75786;DHT22;64402;44.708;37.644;2023-02-15T13:16:45;5.99;63.21
75786;DHT22;64402;44.708;37.644;2023-02-15T13:19:19;5.90;63.79
75786;DHT22;64402;44.708;37.644;2023-02-15T13:21:51;5.85;63.40
75786;DHT22;64402;44.708;37.644;2023-02-15T13:24:36;5.97;64.01
75786;DHT22;64402;44.708;37.644;2023-02-15T13:27:03;6.02;64.12
75786;DHT22;64402;44.708;37.644;2023-02-15T13:29:34;6.04;64.59
75786;DHT22;64402;44.708;37.644;2023-02-15T13:32:12;6.05;63.56
75786;DHT22;64402;44.708;37.644;2023-02-15T13:34:45;5.91;64.31
75786;DHT22;64402;44.708;37.644;2023-02-15T13:37:18;5.86;64.96
75786;DHT22;64402;44.708;37.644;2023-02-15T13:42:49;5.57;65.61
75786;DHT22;64402;44.708;37.644;2023-02-15T13:45:39;5.52;68.68
75786;DHT22;64402;44.708;37.644;2023-02-15T13:56:40;4.93;68.79
75786;DHT22;64402;44.708;37.644;2023-02-15T13:59:26;4.94;69.51
75786;DHT22;64402;44.708;37.644;2023-02-15T14:02:30;4.87;67.82
75786;DHT22;64402;44.708;37.644;2023-02-15T14:16:45;4.59;71.00
75786;DHT22;64402;44.708;37.644;2023-02-15T14:19:37;4.52;69.74
75786;DHT22;64402;44.708;37.644;2023-02-15T14:25:30;4.42;69.55
75786;DHT22;64402;44.708;37.644;2023-02-15T14:30:44;4.27;70.40
75786;DHT22;64402;44.708;37.644;2023-02-15T14:35:55;4.19;70.46
75786;DHT22;64402;44.708;37.644;2023-02-15T14:41:13;4.14;71.58
75786;DHT22;64402;44.708;37.644;2023-02-15T14:51:54;4.06;72.45
75786;DHT22;64402;44.708;37.644;2023-02-15T14:54:52;4.00;73.62
75786;DHT22;64402;44.708;37.644;2023-02-15T15:02:17;3.82;73.61
75786;DHT22;64402;44.708;37.644;2023-02-15T15:05:02;3.69;73.03
75786;DHT22;64402;44.708;37.644;2023-02-15T15:08:04;3.59;73.69
75786;DHT22;64402;44.708;37.644;2023-02-15T15:10:45;3.62;74.77
75786;DHT22;64402;44.708;37.644;2023-02-15T15:19:07;3.61;73.61
75786;DHT22;64402;44.708;37.644;2023-02-15T15:21:56;3.56;74.30
75786;DHT22;64402;44.708;37.644;2023-02-15T15:44:31;3.63;73.80
75786;DHT22;64402;44.708;37.644;2023-02-15T15:47:21;3.58;74.14
75786;DHT22;64402;44.708;37.644;2023-02-15T15:49:56;3.48;73.99
75786;DHT22;64402;44.708;37.644;2023-02-15T15:52:23;3.45;74.76
75786;DHT22;64402;44.708;37.644;2023-02-15T15:54:56;3.42;74.87
75786;DHT22;64402;44.708;37.644;2023-02-15T15:57:29;3.31;74.81
75786;DHT22;64402;44.708;37.644;2023-02-15T15:59:57;3.20;75.21
75786;DHT22;64402;44.708;37.644;2023-02-15T16:02:27;3.17;75.87
75786;DHT22;64402;44.708;37.644;2023-02-15T16:04:53;3.13;76.07
75786;DHT22;64402;44.708;37.644;2023-02-15T16:07:22;3.11;76.51
75786;DHT22;64402;44.708;37.644;2023-02-15T16:09:57;3.10;76.60
75786;DHT22;64402;44.708;37.644;2023-02-15T16:12:27;3.09;77.23
75786;DHT22;64402;44.708;37.644;2023-02-15T16:14:54;3.11;76.79
75786;DHT22;64402;44.708;37.644;2023-02-15T16:17:28;3.14;77.61
75786;DHT22;64402;44.708;37.644;2023-02-15T16:20:33;3.10;76.18
75786;DHT22;64402;44.708;37.644;2023-02-15T16:28:39;3.03;77.16
75786;DHT22;64402;44.708;37.644;2023-02-15T16:31:13;3.02;77.28
75786;DHT22;64402;44.708;37.644;2023-02-15T16:33:41;2.97;75.91
75786;DHT22;64402;44.708;37.644;2023-02-15T16:41:20;2.86;76.82
75786;DHT22;64402;44.708;37.644;2023-02-15T16:43:49;2.83;77.07
75786;DHT22;64402;44.708;37.644;2023-02-15T16:46:37;2.84;77.54
75786;DHT22;64402;44.708;37.644;2023-02-15T16:53:23;2.81;76.73
75786;DHT22;64402;44.708;37.644;2023-02-15T16:55:52;2.79;77.40
75786;DHT22;64402;44.708;37.644;2023-02-15T16:58:25;2.76;77.08
75786;DHT22;64402;44.708;37.644;2023-02-15T17:00:57;2.73;77.08
75786;DHT22;64402;44.708;37.644;2023-02-15T17:03:25;2.68;77.19
75786;DHT22;64402;44.708;37.644;2023-02-15T17:06:00;2.62;77.89
75786;DHT22;64402;44.708;37.644;2023-02-15T17:08:31;2.57;77.79
75786;DHT22;64402;44.708;37.644;2023-02-15T17:13:25;2.53;78.23
75786;DHT22;64402;44.708;37.644;2023-02-15T17:20:59;2.46;78.37
75786;DHT22;64402;44.708;37.644;2023-02-15T17:23:40;2.44;78.79
75786;DHT22;64402;44.708;37.644;2023-02-15T17:26:11;2.43;78.88
75786;DHT22;64402;44.708;37.644;2023-02-15T17:28:49;2.39;78.97
75786;DHT22;64402;44.708;37.644;2023-02-15T17:31:17;2.36;79.17
75786;DHT22;64402;44.708;37.644;2023-02-15T17:33:45;2.29;78.77
75786;DHT22;64402;44.708;37.644;2023-02-15T17:36:23;2.24;79.64
75786;DHT22;64402;44.708;37.644;2023-02-15T17:39:18;2.23;79.42
75786;DHT22;64402;44.708;37.644;2023-02-15T17:41:44;2.22;79.47
75786;DHT22;64402;44.708;37.644;2023-02-15T17:44:11;2.20;79.40
75786;DHT22;64402;44.708;37.644;2023-02-15T17:46:41;2.13;79.63
75786;DHT22;64402;44.708;37.644;2023-02-15T17:49:24;2.11;78.63
75786;DHT22;64402;44.708;37.644;2023-02-15T17:51:52;2.11;77.80
75786;DHT22;64402;44.708;37.644;2023-02-15T17:54:18;2.06;78.18
75786;DHT22;64402;44.708;37.644;2023-02-15T17:57:12;2.01;77.76
75786;DHT22;64402;44.708;37.644;2023-02-15T17:59:38;1.94;78.33
75786;DHT22;64402;44.708;37.644;2023-02-15T18:02:23;1.90;79.24
75786;DHT22;64402;44.708;37.644;2023-02-15T18:05:15;1.85;79.72
75786;DHT22;64402;44.708;37.644;2023-02-15T18:08:00;1.81;79.34
75786;DHT22;64402;44.708;37.644;2023-02-15T18:10:44;1.79;79.37
75786;DHT22;64402;44.708;37.644;2023-02-15T18:13:29;1.80;79.24
75786;DHT22;64402;44.708;37.644;2023-02-15T18:15:55;1.83;79.08
75786;DHT22;64402;44.708;37.644;2023-02-15T18:18:22;1.85;79.86
75786;DHT22;64402;44.708;37.644;2023-02-15T18:20:49;1.84;79.05
75786;DHT22;64402;44.708;37.644;2023-02-15T18:23:16;1.85;79.47
75786;DHT22;64402;44.708;37.644;2023-02-15T18:25:42;1.91;79.53
75786;DHT22;64402;44.708;37.644;2023-02-15T18:28:08;1.95;78.98
75786;DHT22;64402;44.708;37.644;2023-02-15T18:30:35;2.01;79.69
75786;DHT22;64402;44.708;37.644;2023-02-15T18:33:06;2.08;79.23
75786;DHT22;64402;44.708;37.644;2023-02-15T18:35:32;2.15;78.67
75786;DHT22;64402;44.708;37.644;2023-02-15T18:37:59;2.16;78.17
75786;DHT22;64402;44.708;37.644;2023-02-15T18:40:27;2.10;77.46
75786;DHT22;64402;44.708;37.644;2023-02-15T18:42:54;2.16;77.61
75786;DHT22;64402;44.708;37.644;2023-02-15T18:45:24;2.22;77.41
75786;DHT22;64402;44.708;37.644;2023-02-15T18:47:53;2.28;77.33
75786;DHT22;64402;44.708;37.644;2023-02-15T18:50:21;2.30;77.76
75786;DHT22;64402;44.708;37.644;2023-02-15T18:52:48;2.31;78.07
75786;DHT22;64402;44.708;37.644;2023-02-15T18:55:20;2.27;77.56
75786;DHT22;64402;44.708;37.644;2023-02-15T18:57:48;2.25;77.42
75786;DHT22;64402;44.708;37.644;2023-02-15T19:00:24;2.25;77.44
75786;DHT22;64402;44.708;37.644;2023-02-15T19:02:51;2.21;77.96
75786;DHT22;64402;44.708;37.644;2023-02-15T19:05:19;2.23;78.23
75786;DHT22;64402;44.708;37.644;2023-02-15T19:07:46;2.23;78.33
75786;DHT22;64402;44.708;37.644;2023-02-15T19:10:21;2.27;77.69
75786;DHT22;64402;44.708;37.644;2023-02-15T19:12:49;2.24;77.47